• Join FlightAware (Why Join?)
  • Login
  • US Flag 
05:16PM EDT


 

Airport Tracker/Info


-or-


 

Live Flight TrackerFlight Track Log ✈ DAL1005 ✈ 14-Apr-2013 ✈ KCLT - KDTW

Flight Track Log - Related Links

Times and Time Zones

All times are in EDT time to prevent confusion due to time zone crossing. See the DAL1005 flight status page for this flight to view local times or setup timezone preferences in your user account.

Time Position Orientation Groundspeed Altitude Reporting Facility
EDT Latitude Longitude Course Direction KTS MPH feet Rate Location/Type
06:45PM 35.1892 -80.9500 175° South 153 176 2,100  Level FAA TRACON SMA TRACON (SMA)
06:46PM 35.1719 -80.9481 175° South 162 186 2,700 1,620 Climbing FAA TRACON SMA TRACON (SMA)
06:46PM 35.1542 -80.9469 177° South 212 244 3,200 1,800 Climbing FAA TRACON SMA TRACON (SMA)
06:46PM 35.1344 -80.9528 194° South 243 280 3,900 3,180 Climbing FAA TRACON SMA TRACON (SMA)
06:47PM 35.1094 -80.9647 201° Southwest 262 302 5,400 4,080 Climbing FAA TRACON SMA TRACON (SMA)
06:47PM 35.0958 -80.9853 231° Southwest 262 302 6,700 3,300 Climbing FAA TRACON SMA TRACON (SMA)
06:47PM 35.0917 -81.0122 259° West 264 304 7,600 1,800 Climbing FAA TRACON SMA TRACON (SMA)
06:48PM 35.0917 -81.0483 270° West 275 316 7,900 600 Climbing FAA TRACON SMA TRACON (SMA)
06:48PM 35.0919 -81.0775 271° West 278 320 8,000 120 Climbing FAA TRACON SMA TRACON (SMA)
06:48PM 35.0933 -81.1072 273° West 284 327 8,000  Level FAA TRACON SMA TRACON (SMA)
06:49PM 35.1072 -81.1408 297° West 286 329 8,000 900 Level FAA TRACON SMA TRACON (SMA)
06:49PM 35.1292 -81.1561 330° Northwest 289 333 8,600 2,520 Climbing FAA TRACON SMA TRACON (SMA)
06:49PM 35.1539 -81.1619 349° North 310 357 9,700 3,600 Climbing FAA TRACON SMA TRACON (SMA)
06:50PM 35.1856 -81.1625 359° North 292 336 11,000 3,000 Climbing FAA TRACON SMA TRACON (SMA)
06:50PM 35.2083 -81.1486 26° Northeast 302 348 11,700 1,620 Climbing FAA TRACON SMA TRACON (SMA)
06:50PM 35.2283 -81.1297 38° Northeast 314 361 12,100 1,500 Climbing FAA TRACON SMA TRACON (SMA)
06:51PM 35.2628 -81.1058 30° Northeast 348 400 12,700 2,460 Climbing FAA TRACON SMA TRACON (SMA)
06:51PM 35.2886 -81.0847 34° Northeast 365 420 13,700 2,460 Climbing FAA TRACON SMA TRACON (SMA)
06:51PM 35.3117 -81.0653 35° Northeast 364 419 14,300 2,400 Climbing FAA TRACON SMA TRACON (SMA)
06:52PM 35.3419 -81.0417 32° Northeast 371 427 15,300 3,000 Climbing FAA TRACON SMA TRACON (SMA)
06:52PM 35.3758 -81.0142 33° Northeast 377 434 16,300 2,700 Climbing FAA TRACON SMA TRACON (SMA)
06:52PM 35.4039 -80.9917 33° Northeast 382 440 17,100 2,100 Climbing FAA TRACON SMA TRACON (SMA)
06:53PM 35.4350 -80.9756 23° Northeast 387 445 17,700 2,400 Climbing FAA TRACON SMA TRACON (SMA)
06:53PM 35.4758 -80.9739 North 385 443 18,700 2,700 Climbing FAA TRACON SMA TRACON (SMA)
06:53PM 35.5086 -80.9761 357° North 383 441 19,500 2,340 Climbing FAA TRACON SMA TRACON (SMA)
06:54PM 35.5414 -80.9778 358° North 382 440 20,300 2,460 Climbing FAA TRACON SMA TRACON (SMA)
06:54PM 35.5822 -80.9803 357° North 383 441 21,200 2,220 Climbing FAA TRACON SMA TRACON (SMA)
06:54PM 35.6114 -80.9811 359° North 374 430 21,700 1,920 Climbing Atlanta Center
06:55PM 35.7219 -80.9872 357° North 395 455 23,700 1,920 Climbing Atlanta Center
06:56PM 35.8369 -80.9956 357° North 408 470 25,600 1,140 Climbing Atlanta Center
06:57PM 35.9581 -81.0039 357° North 420 483 26,000 -300 Climbing Atlanta Center
06:58PM 36.0753 -81.0125 357° North 425 489 25,000 -540 Descending Atlanta Center
06:59PM 36.1922 -81.0183 358° North 419 482 25,000  Level Atlanta Center
07:00PM 36.3069 -81.0269 357° North 419 482 25,000 -180 Level Atlanta Center
07:01PM 36.4136 -81.0333 357° North 424 488 24,700 -540 Descending Atlanta Center
07:02PM 36.5264 -81.0394 358° North 418 481 24,000 -240 Descending Atlanta Center
07:04PM 36.7839 -81.0578 357° North 415 478 24,000  Level Indianapolis Center
07:05PM 36.9056 -81.0658 357° North 435 501 24,000  Level Indianapolis Center
07:06PM 37.0381 -81.0756 357° North 474 545 24,000  Level Indianapolis Center
07:07PM 37.1944 -81.0853 357° North 479 551 24,000  Level Indianapolis Center
07:08PM 37.3272 -81.0931 357° North 486 559 24,000  Level Indianapolis Center
07:09PM 37.4586 -81.1017 357° North 485 558 24,000  Level Indianapolis Center
07:11PM 37.5878 -81.1100 357° North 478 550 24,000  Level Indianapolis Center
07:12PM 37.7422 -81.1206 357° North 476 548 24,000  Level Indianapolis Center
07:13PM 37.8683 -81.1561 347° North 468 539 24,000  Level Indianapolis Center
07:14PM 37.9933 -81.2011 344° North 468 539 24,000  Level Indianapolis Center
07:15PM 38.1175 -81.2478 344° North 464 534 24,000  Level Indianapolis Center
07:16PM 38.2422 -81.2956 343° North 468 539 24,000  Level Indianapolis Center
07:17PM 38.3669 -81.3431 343° North 468 539 24,000 -60 Level Indianapolis Center
07:18PM 38.5169 -81.3997 344° North 472 543 23,900  Descending Indianapolis Center
07:19PM 38.6356 -81.4439 344° North 454 522 24,000  Climbing Indianapolis Center
07:20PM 38.7492 -81.4894 343° North 441 507 24,000  Level Indianapolis Center
07:21PM 38.8636 -81.5319 344° North 443 510 24,000  Level Indianapolis Center
07:22PM 39.0036 -81.5858 343° North 440 506 24,000  Level Indianapolis Center
07:23PM 39.1208 -81.6322 343° North 443 510 24,000  Level Indianapolis Center
07:24PM 39.2400 -81.6764 344° North 445 512 24,000  Level Indianapolis Center
07:25PM 39.3564 -81.7219 343° North 439 505 24,000  Level Indianapolis Center
07:26PM 39.4697 -81.7658 343° North 424 488 24,000  Level Indianapolis Center
07:27PM 39.5789 -81.8094 343° North 411 473 24,000  Level Indianapolis Center
07:28PM 39.6889 -81.8519 343° North 411 473 24,000 -60 Level Indianapolis Center
07:29PM 39.8150 -81.8811 350° North 404 465 23,900 -60 Descending Indianapolis Center
07:30PM 39.9300 -81.9008 353° North 412 474 23,900  Level Indianapolis Center
07:31PM 40.0450 -81.9211 352° North 414 476 23,900  Level Indianapolis Center
07:32PM 40.1581 -81.9406 353° North 410 472 23,900  Level Indianapolis Center
07:33PM 40.2828 -81.9653 351° North 410 472 24,000  Climbing Indianapolis Center
07:34PM 40.3775 -81.9839 351° North 407 468 24,000  Level Cleveland Center
07:35PM 40.4878 -82.0028 353° North 407 468 24,000  Level Cleveland Center
07:36PM 40.6000 -82.0214 353° North 407 468 24,000  Level Cleveland Center
07:37PM 40.7103 -82.0431 352° North 407 468 24,000  Level Cleveland Center
07:38PM 40.8331 -82.0650 352° North 407 468 24,000  Level Cleveland Center
07:39PM 40.9411 -82.0867 351° North 407 468 24,000  Level Cleveland Center
07:40PM 41.0556 -82.1058 353° North 407 468 24,000 -60 Level Cleveland Center
07:41PM 41.1719 -82.1306 351° North 412 474 23,900 -600 Descending Cleveland Center
07:42PM 41.2864 -82.1500 353° North 412 474 22,900 -960 Descending Cleveland Center
07:43PM 41.3833 -82.2131 334° Northwest 401 461 22,000 -480 Descending Cleveland Center
07:44PM 41.4444 -82.3089 310° West 384 442 22,000 -720 Level Cleveland Center
07:45PM 41.4994 -82.3992 309° West 380 437 20,700 -2,100 Descending Cleveland Center
07:46PM 41.5764 -82.5289 308° West 379 436 17,800 -2,580 Descending Cleveland Center
07:46PM 41.6050 -82.5742 310° West 363 418 16,800 -2,640 Descending Cleveland Center
07:47PM 41.6372 -82.6308 307° West 372 428 15,200 -2,880 Descending Cleveland Center
07:47PM 41.6617 -82.6706 309° West 355 409 14,200 -2,940 Descending Cleveland Center
07:48PM 41.6958 -82.7328 306° West 360 414 12,300 -2,220 Descending Cleveland Center
07:48PM 41.7264 -82.7783 312° West 349 402 12,000 -300 Descending Cleveland Center
07:49PM 41.7608 -82.8211 317° Northwest 347 399 12,000  Level Cleveland Center
07:49PM 41.7975 -82.8644 319° Northwest 332 382 12,000  Level Cleveland Center
07:50PM 41.8300 -82.9072 316° Northwest 335 386 12,000  Level Cleveland Center
07:50PM 41.8625 -82.9475 317° Northwest 333 383 12,000  Level Cleveland Center
07:51PM 41.8992 -82.9878 321° Northwest 329 379 12,000  Level Cleveland Center
07:52PM 41.9419 -83.0397 318° Northwest 332 382 12,000  Level Cleveland Center
07:52PM 41.9664 -83.0686 319° Northwest 329 379 12,000  Level Cleveland Center
07:52PM 42.0028 -83.1147 317° Northwest 330 380 12,000  Level Cleveland Center
07:53PM 42.0292 -83.1467 318° Northwest 322 371 12,000  Level Cleveland Center
07:53PM 42.0597 -83.1814 320° Northwest 247 284 12,000 -120 Level Cleveland Center
07:54PM 42.0822 -83.2075 319° Northwest 289 333 11,900 -600 Descending Cleveland Center
07:54PM 42.1133 -83.2144 351° North 252 290 11,500 -1,380 Descending Cleveland Center
07:56PM 42.1883 -83.2061 North 266 306 10,000 -1,320 Descending Cleveland Center
07:56PM 42.2436 -83.1664 28° Northeast 260 299 9,000 -1,380 Descending Cleveland Center
07:58PM 42.3197 -83.1161 26° Northeast 255 293 7,200 -1,440 Descending Cleveland Center
07:58PM 42.3739 -83.1183 358° North 189 217 6,000 -1,620 Descending Cleveland Center
07:59PM 42.3642 -83.1825 258° West 176 203 4,100 -1,260 Descending Cleveland Center
08:00PM 42.3439 -83.2464 247° West 174 200 3,500 -780 Descending Cleveland Center
08:02PM 42.3036 -83.2756 208° Southwest 173 199 2,600 -840 Descending Cleveland Center
08:03PM 42.2675 -83.3022 209° Southwest 133 153 1,800 -840 Descending Cleveland Center
08:04PM 42.2336 -83.3258 207° Southwest 136 157 1,000 -840 Descending Cleveland Center